createdAt,value
2023-03-12T00:30:14.393Z,87610.00
2023-03-12T00:31:14.402Z,87610.00
2023-03-12T00:32:14.414Z,87608.00
2023-03-12T00:33:14.312Z,87608.00
2023-03-12T00:34:14.271Z,87612.00
2023-03-12T00:35:14.247Z,87614.00
2023-03-12T00:36:14.216Z,87618.00
2023-03-12T00:37:14.193Z,87616.00
2023-03-12T00:38:14.174Z,87616.00
2023-03-12T00:39:14.123Z,87616.00
2023-03-12T00:40:14.106Z,87614.00
2023-03-12T00:41:14.075Z,87618.00
2023-03-12T00:42:14.042Z,87618.00
2023-03-12T00:43:14.023Z,87616.00
2023-03-12T00:44:14.000Z,87618.00
2023-03-12T00:45:13.969Z,87620.00
2023-03-12T00:46:13.977Z,87624.00
2023-03-12T00:47:13.920Z,87622.00
2023-03-12T00:48:13.873Z,87622.00
2023-03-12T00:49:13.864Z,87622.00
2023-03-12T00:50:13.804Z,87618.00
2023-03-12T00:51:13.793Z,87620.00
2023-03-12T00:52:13.765Z,87624.00
2023-03-12T00:53:13.752Z,87627.00
2023-03-12T00:54:13.697Z,87625.00
2023-03-12T00:55:13.665Z,87625.00
2023-03-12T00:56:13.668Z,87625.00
2023-03-12T00:57:13.623Z,87625.00
2023-03-12T00:58:13.586Z,87624.00
2023-03-12T00:59:13.544Z,87624.00
2023-03-12T01:00:13.528Z,87622.00
2023-03-12T01:01:13.524Z,87624.00
2023-03-12T01:02:13.461Z,87622.00
2023-03-12T01:03:13.429Z,87622.00
2023-03-12T01:04:13.538Z,87622.00
2023-03-12T01:05:13.368Z,87622.00
2023-03-12T01:06:13.332Z,87622.00
2023-03-12T01:07:13.309Z,87622.00
2023-03-12T01:08:13.265Z,87622.00
2023-03-12T01:09:13.234Z,87624.00
2023-03-12T01:10:13.204Z,87624.00
2023-03-12T01:11:13.177Z,87625.00
2023-03-12T01:12:13.139Z,87625.00
2023-03-12T01:13:13.138Z,87624.00
2023-03-12T01:14:13.062Z,87624.00
2023-03-12T01:15:13.024Z,87625.00
2023-03-12T01:16:13.024Z,87625.00
2023-03-12T01:17:12.952Z,87625.00
2023-03-12T01:18:12.934Z,87624.00
2023-03-12T01:19:12.898Z,87618.00
2023-03-12T01:20:12.862Z,87622.00
2023-03-12T01:21:12.829Z,87616.00
2023-03-12T01:22:12.792Z,87616.00
2023-03-12T01:23:12.761Z,87614.00
2023-03-12T01:24:12.732Z,87622.00
2023-03-12T01:25:12.702Z,87620.00
2023-03-12T01:26:12.655Z,87620.00
2023-03-12T01:27:12.627Z,87620.00
2023-03-12T01:28:12.638Z,87620.00
2023-03-12T01:29:12.566Z,87620.00
2023-03-12T01:30:12.538Z,87620.00
2023-03-12T01:31:12.522Z,87622.00
2023-03-12T01:32:12.543Z,87622.00
2023-03-12T01:33:12.478Z,87622.00
2023-03-12T01:34:12.431Z,87620.00
2023-03-12T01:35:12.416Z,87620.00
2023-03-12T03:29:08.974Z,87694.00
2023-03-12T03:30:08.926Z,87701.00
2023-03-12T06:50:02.148Z,87792.00
2023-03-12T06:51:02.139Z,87792.00
2023-03-12T06:52:02.029Z,87794.00
2023-03-12T06:53:02.002Z,87794.00
2023-03-12T06:54:01.982Z,87797.00
2023-03-12T06:55:01.949Z,87799.00
2023-03-12T06:56:01.927Z,87797.00
2023-03-12T06:57:01.903Z,87799.00
2023-03-12T06:58:01.874Z,87801.00
2023-03-12T06:59:01.839Z,87799.00
2023-03-12T07:00:01.843Z,87801.00
2023-03-12T07:01:01.795Z,87805.00
2023-03-12T07:02:01.802Z,87803.00
2023-03-12T07:03:01.724Z,87805.00
2023-03-12T08:32:58.275Z,87823.00
2023-03-12T11:06:52.251Z,87913.00
2023-03-12T11:07:52.206Z,87913.00
2023-03-12T11:08:53.052Z,87913.00
2023-03-12T11:09:52.129Z,87915.00
2023-03-12T11:10:52.090Z,87913.00
2023-03-12T11:11:52.067Z,87913.00
2023-03-12T11:12:52.025Z,87913.00
2023-03-12T11:13:52.009Z,87917.00
2023-03-12T11:14:51.961Z,87917.00
2023-03-12T11:15:51.940Z,87921.00
2023-03-12T11:16:51.907Z,87923.00
2023-03-12T11:17:51.849Z,87925.00
2023-03-12T11:18:51.802Z,87927.00
2023-03-12T11:19:51.768Z,87927.00
2023-03-12T11:20:51.756Z,87927.00
2023-03-12T11:21:51.716Z,87929.00
2023-03-12T15:21:42.668Z,87987.00
2023-03-12T15:22:42.626Z,87981.00
2023-03-12T15:23:42.585Z,87979.00
2023-03-12T15:24:42.549Z,87975.00
2023-03-12T15:25:42.507Z,87975.00
2023-03-12T15:26:42.467Z,87975.00
2023-03-12T15:27:42.462Z,87975.00
2023-03-12T15:28:42.401Z,87971.00
2023-03-12T15:29:42.354Z,87975.00
2023-03-12T15:30:42.391Z,87977.00
2023-03-12T15:31:42.356Z,87979.00
2023-03-12T15:32:42.289Z,87979.00
2023-03-12T15:33:42.222Z,87981.00
2023-03-12T15:34:42.179Z,87985.00
2023-03-12T15:35:42.307Z,87987.00
2023-03-12T15:36:42.112Z,87987.00
2023-03-12T15:37:42.090Z,87981.00
2023-03-12T15:38:42.100Z,87983.00
2023-03-12T15:39:42.156Z,87981.00
2023-03-12T15:40:41.988Z,87979.00
2023-03-12T15:41:41.959Z,87979.00
2023-03-12T15:42:41.921Z,87977.00
2023-03-12T15:43:41.883Z,87979.00
2023-03-12T15:44:41.880Z,87977.00
2023-03-12T15:45:41.882Z,87977.00
2023-03-12T15:46:41.919Z,87973.00
2023-03-12T15:47:41.734Z,87975.00
2023-03-12T15:48:41.695Z,87971.00
2023-03-12T19:07:37.125Z,88179.00
2023-03-12T19:13:34.726Z,88185.00
2023-03-12T19:33:34.137Z,88218.00
2023-03-12T20:05:33.169Z,88218.00
2023-03-12T20:06:33.137Z,88216.00
2023-03-12T20:07:33.111Z,88216.00
2023-03-12T20:08:33.085Z,88214.00
2023-03-12T20:09:33.075Z,88214.00
2023-03-12T20:10:33.028Z,88214.00
2023-03-12T20:11:33.002Z,88214.00
2023-03-12T20:12:32.975Z,88216.00
2023-03-12T20:13:32.960Z,88216.00
2023-03-12T20:14:32.943Z,88218.00
2023-03-12T20:15:32.896Z,88218.00
2023-03-12T20:16:32.940Z,88218.00
2023-03-12T20:17:32.865Z,88222.00
2023-03-12T20:18:32.821Z,88220.00
2023-03-12T20:19:32.798Z,88220.00
2023-03-12T20:20:32.790Z,88222.00
2023-03-12T20:21:32.729Z,88218.00
2023-03-12T20:22:32.702Z,88218.00
2023-03-12T20:23:32.664Z,88214.00
2023-03-12T20:24:32.683Z,88207.00
2023-03-12T20:25:32.615Z,88207.00
2023-03-12T20:26:32.590Z,88214.00
2023-03-12T20:27:32.550Z,88214.00
2023-03-12T20:28:32.535Z,88218.00
2023-03-12T20:29:32.541Z,88218.00
2023-03-12T20:30:32.475Z,88218.00
2023-03-12T20:31:32.536Z,88216.00
2023-03-12T20:32:32.460Z,88214.00
2023-03-12T20:33:32.385Z,88216.00
2023-03-12T20:34:32.346Z,88218.00
2023-03-12T20:35:32.341Z,88220.00
2023-03-12T20:36:32.303Z,88222.00
2023-03-12T20:37:32.256Z,88224.00
2023-03-12T20:38:32.234Z,88224.00
2023-03-12T20:39:32.216Z,88226.00
2023-03-12T20:40:32.185Z,88226.00
2023-03-12T20:41:32.161Z,88224.00
2023-03-12T20:42:32.125Z,88224.00
2023-03-12T20:43:32.092Z,88224.00
2023-03-12T20:44:32.098Z,88224.00
2023-03-12T20:45:32.055Z,88230.00
2023-03-12T20:46:32.020Z,88230.00
2023-03-12T20:47:31.991Z,88228.00
2023-03-12T20:48:31.999Z,88230.00
2023-03-12T20:49:31.967Z,88226.00
2023-03-12T20:50:31.935Z,88228.00
2023-03-12T20:51:31.898Z,88226.00
2023-03-12T20:52:31.872Z,88226.00
2023-03-12T20:53:31.840Z,88228.00
2023-03-12T20:54:31.824Z,88228.00
2023-03-12T20:55:31.801Z,88226.00
2023-03-12T20:56:31.774Z,88226.00
2023-03-12T20:57:31.741Z,88226.00
2023-03-12T20:58:31.715Z,88226.00
2023-03-12T21:09:31.382Z,88237.00
2023-03-12T21:10:31.834Z,88239.00
2023-03-12T21:13:31.276Z,88243.00
2023-03-12T21:14:31.288Z,88241.00
2023-03-12T21:15:31.206Z,88241.00
2023-03-12T21:16:31.216Z,88245.00
2023-03-12T21:17:31.164Z,88247.00
2023-03-12T21:18:31.117Z,88251.00
2023-03-12T21:19:31.097Z,88255.00
2023-03-12T21:20:31.023Z,88259.00
2023-03-12T21:21:30.992Z,88259.00
2023-03-12T21:22:30.959Z,88259.00
2023-03-12T21:23:30.983Z,88253.00
2023-03-12T21:24:30.890Z,88259.00
2023-03-12T21:25:30.844Z,88259.00
2023-03-12T21:26:30.821Z,88255.00
2023-03-12T21:27:38.404Z,88259.00
2023-03-12T21:28:31.757Z,88259.00
2023-03-12T21:29:30.721Z,88265.00
2023-03-12T21:30:30.715Z,88261.00
2023-03-12T21:31:30.664Z,88263.00
2023-03-12T21:32:30.688Z,88255.00
2023-03-12T21:33:30.600Z,88255.00
2023-03-12T21:34:30.613Z,88255.00
2023-03-12T21:35:30.641Z,88259.00
2023-03-12T21:36:30.610Z,88253.00
2023-03-12T21:37:30.513Z,88257.00
2023-03-12T21:38:30.477Z,88253.00
2023-03-12T21:39:30.440Z,88257.00
2023-03-12T21:40:30.412Z,88253.00
2023-03-12T21:41:30.391Z,88257.00
2023-03-12T21:42:30.358Z,88255.00
2023-03-12T21:43:30.318Z,88251.00
2023-03-12T21:44:30.296Z,88249.00
2023-03-12T21:45:30.290Z,88255.00
2023-03-12T21:46:30.273Z,88253.00
2023-03-12T21:47:30.235Z,88253.00
2023-03-12T21:48:30.186Z,88247.00
2023-03-12T21:49:30.163Z,88253.00
2023-03-12T21:50:30.126Z,88247.00
2023-03-12T21:51:30.105Z,88247.00
2023-03-12T21:52:30.078Z,88247.00
2023-03-12T21:53:30.059Z,88245.00
2023-03-12T21:54:30.021Z,88243.00
2023-03-12T21:55:29.992Z,88241.00
2023-03-12T21:56:29.988Z,88241.00
2023-03-12T21:57:29.961Z,88241.00
2023-03-12T21:58:29.923Z,88241.00
2023-03-12T21:59:29.888Z,88241.00
2023-03-12T22:00:29.855Z,88237.00
2023-03-12T22:01:29.877Z,88239.00
2023-03-12T22:02:29.803Z,88237.00
2023-03-12T22:03:29.774Z,88239.00
2023-03-12T22:04:29.889Z,88243.00
2023-03-12T22:05:29.724Z,88243.00
2023-03-12T22:06:29.765Z,88243.00
2023-03-12T22:07:29.669Z,88245.00
2023-03-12T22:08:29.646Z,88241.00
2023-03-12T22:09:29.624Z,88245.00
2023-03-12T22:10:29.608Z,88245.00
2023-03-12T22:11:29.565Z,88241.00
2023-03-12T22:12:29.544Z,88239.00
2023-03-12T22:13:29.511Z,88237.00
2023-03-12T22:14:29.501Z,88236.00
2023-03-12T22:15:29.489Z,88234.00
2023-03-12T22:16:29.579Z,88236.00
2023-03-12T22:17:29.417Z,88236.00
2023-03-12T22:18:29.393Z,88239.00
2023-03-12T22:19:29.351Z,88236.00
2023-03-12T22:20:29.325Z,88239.00
2023-03-12T22:21:29.290Z,88239.00
2023-03-12T22:22:29.279Z,88234.00
2023-03-12T22:23:29.246Z,88234.00
2023-03-12T22:24:29.227Z,88234.00
2023-03-12T22:25:29.189Z,88237.00
2023-03-12T22:26:29.155Z,88241.00
2023-03-12T22:27:29.145Z,88245.00
2023-03-12T22:28:29.132Z,88241.00
2023-03-12T22:29:29.082Z,88243.00
2023-03-12T22:30:29.104Z,88241.00
2023-03-12T22:31:29.057Z,88239.00
2023-03-12T22:32:29.103Z,88239.00
2023-03-12T22:33:28.995Z,88241.00
2023-03-12T22:34:28.950Z,88241.00
2023-03-12T22:35:28.918Z,88245.00
2023-03-12T22:36:28.897Z,88241.00
2023-03-12T22:37:28.868Z,88243.00
2023-03-12T22:38:28.832Z,88243.00
2023-03-12T22:39:28.801Z,88241.00
2023-03-12T22:40:28.791Z,88241.00
2023-03-12T22:41:28.761Z,88241.00
2023-03-12T22:42:28.735Z,88241.00
2023-03-12T22:43:28.706Z,88239.00
2023-03-12T22:44:28.690Z,88237.00
2023-03-12T22:45:28.660Z,88236.00
2023-03-12T22:46:28.759Z,88237.00
2023-03-12T22:47:28.629Z,88236.00
2023-03-12T22:48:28.625Z,88234.00
2023-03-12T22:49:28.579Z,88230.00
2023-03-12T22:50:28.554Z,88232.00
2023-03-12T22:51:28.568Z,88234.00
2023-03-12T22:52:28.516Z,88234.00
2023-03-12T22:53:28.495Z,88237.00
2023-03-12T22:54:28.476Z,88236.00
2023-03-12T22:55:28.448Z,88236.00
2023-03-12T22:56:28.417Z,88236.00
2023-03-12T22:57:28.404Z,88232.00
2023-03-12T22:58:28.394Z,88234.00
2023-03-12T22:59:28.341Z,88236.00
2023-03-12T23:00:28.327Z,88232.00
2023-03-12T23:01:28.375Z,88232.00
2023-03-12T23:02:28.318Z,88232.00
2023-03-12T23:03:28.240Z,88228.00
2023-03-12T23:04:28.320Z,88230.00
2023-03-12T23:05:28.210Z,88230.00
2023-03-12T23:06:28.169Z,88230.00
2023-03-12T23:07:28.155Z,88232.00
2023-03-12T23:08:28.142Z,88232.00
2023-03-12T23:09:28.108Z,88236.00
2023-03-12T23:10:28.085Z,88234.00
2023-03-12T23:11:28.054Z,88237.00
2023-03-12T23:12:28.035Z,88237.00
2023-03-12T23:13:28.004Z,88234.00
2023-03-12T23:14:27.984Z,88236.00
2023-03-12T23:15:38.787Z,88234.00
2023-03-12T23:17:27.913Z,88230.00
2023-03-12T23:18:27.887Z,88228.00
2023-03-12T23:19:27.880Z,88232.00
2023-03-12T23:20:27.841Z,88230.00
2023-03-12T23:21:27.822Z,88228.00
2023-03-12T23:22:27.793Z,88230.00
2023-03-12T23:23:27.770Z,88226.00
2023-03-12T23:24:27.743Z,88226.00
2023-03-12T23:25:27.721Z,88224.00
2023-03-12T23:26:27.696Z,88224.00
2023-03-12T23:27:27.671Z,88226.00
2023-03-12T23:28:27.669Z,88226.00
2023-03-12T23:29:27.620Z,88230.00
2023-03-12T23:30:27.590Z,88228.00
2023-03-12T23:31:27.873Z,88228.00
2023-03-12T23:32:27.614Z,88232.00
2023-03-12T23:33:27.504Z,88230.00
2023-03-12T23:34:27.490Z,88232.00
2023-03-12T23:35:27.545Z,88234.00
2023-03-12T23:36:27.452Z,88232.00
2023-03-12T23:37:27.437Z,88234.00
2023-03-12T23:38:27.386Z,88228.00
2023-03-12T23:39:27.365Z,88226.00
2023-03-12T23:40:27.330Z,88230.00
2023-03-12T23:41:27.307Z,88234.00
2023-03-12T23:42:27.276Z,88234.00
2023-03-12T23:43:27.273Z,88234.00
2023-03-12T23:44:27.266Z,88232.00
2023-03-12T23:45:27.278Z,88232.00
2023-03-12T23:46:27.202Z,88232.00
2023-03-12T23:47:27.157Z,88230.00
2023-03-12T23:48:27.139Z,88230.00
2023-03-12T23:49:27.121Z,88230.00
2023-03-12T23:50:27.098Z,88230.00
2023-03-12T23:51:27.078Z,88232.00
2023-03-12T23:52:27.129Z,88232.00
2023-03-12T23:53:27.020Z,88228.00
2023-03-12T23:54:26.980Z,88224.00
2023-03-12T23:55:26.956Z,88222.00
2023-03-12T23:56:26.928Z,88226.00
2023-03-12T23:57:26.914Z,88222.00
2023-03-12T23:58:26.894Z,88226.00
2023-03-12T23:59:26.848Z,88220.00
